Time;durP1;ratioP1;P1;durP2;ratioP2;P2;SDS_P1;SDS_P2;PMS_P1;PMS_P2;Temp;Humidity;BMP_temperature;BMP_pressure;BME280_temperature;BME280_humidity;BME280_pressure;Samples;Min_cycle;Max_cycle;Signal;HPM_P1;HPM_P2
2021/07/14 00:00:29;;;;;;;;;;;;;;;24.18;67.12;100689.28;5061023;28;1947;-42
2021/07/14 00:02:56;;;;;;;;;;;;;;;24.19;67.67;100700.94;5063468;28;1557;-42
2021/07/14 00:05:23;;;;;;;;;;;;;;;24.19;67.59;100699.09;5061833;28;1306;-42
2021/07/14 00:07:49;;;;;;;;;;;;;;;24.18;67.17;100692.00;5056691;28;2056;-41
2021/07/14 00:10:17;;;;;;;;;;;;;;;24.16;66.57;100695.88;5046694;28;1498;-41
2021/07/14 00:12:50;;;;;;;;;;;;;;;24.17;66.81;100693.03;5049701;28;1921;-42
2021/07/14 00:23:32;;;;;;;;;;;;;;;23.78;66.92;100704.53;5041901;28;1584;-42
2021/07/14 00:25:58;;;;;;;;;;;;;;;23.77;67.03;100688.44;5047570;28;1366;-42
2021/07/14 00:28:25;;;;;;;;;;;;;;;23.79;67.17;100700.78;5045540;28;2271;-41
2021/07/14 00:30:55;;;;;;;;;;;;;;;23.84;67.10;100692.19;5042675;28;1473;-41
2021/07/14 00:33:23;;;;;;;;;;;;;;;23.93;66.98;100693.88;5040849;28;1786;-41
2021/07/14 00:35:49;;;;;;;;;;;;;;;23.81;66.72;100703.34;5044400;28;1723;-41
2021/07/14 00:38:16;;;;;;;;;;;;;;;23.90;66.11;100693.38;5042244;28;1902;-42
2021/07/14 00:40:42;;;;;;;;;;;;;;;23.96;66.40;100685.44;5045030;28;1322;-42
2021/07/14 00:43:09;;;;;;;;;;;;;;;23.97;66.48;100683.56;5045810;28;1712;-42
2021/07/14 00:45:35;;;;;;;;;;;;;;;24.02;66.07;100692.03;5042292;28;1636;-42
2021/07/14 00:48:02;;;;;;;;;;;;;;;23.91;66.37;100697.75;5044329;28;1725;-42
2021/07/14 00:50:30;;;;;;;;;;;;;;;23.93;66.14;100687.63;5041873;28;1956;-41
2021/07/14 00:52:58;;;;;;;;;;;;;;;23.94;66.08;100689.34;5044803;28;1662;-41
2021/07/14 00:55:24;;;;;;;;;;;;;;;23.52;67.06;100690.31;5042093;28;1356;-42
2021/07/14 00:57:51;;;;;;;;;;;;;;;23.41;67.25;100689.59;5044321;28;1984;-42
2021/07/14 01:00:17;;;;;;;;;;;;;;;23.40;67.36;100695.19;5044397;28;1530;-41
2021/07/14 01:02:44;;;;;;;;;;;;;;;23.33;67.29;100699.53;5041317;28;1459;-42
2021/07/14 01:05:12;;;;;;;;;;;;;;;23.52;67.08;100701.09;5047053;28;1510;-42
2021/07/14 01:07:46;;;;;;;;;;;;;;;23.67;66.84;100688.63;5045080;28;1451;-42
2021/07/14 01:10:14;;;;;;;;;;;;;;;23.79;66.01;100703.50;5041061;28;2054;-41
2021/07/14 01:12:45;;;;;;;;;;;;;;;23.82;66.27;100695.06;5044741;28;2062;-42
2021/07/14 01:15:13;;;;;;;;;;;;;;;23.85;66.02;100701.97;5043370;28;1708;-41
2021/07/14 01:17:45;;;;;;;;;;;;;;;23.87;66.22;100707.22;5044741;28;1902;-41
2021/07/14 01:20:22;;;;;;;;;;;;;;;23.87;66.13;100691.84;5045041;28;1590;-42
2021/07/14 01:22:56;;;;;;;;;;;;;;;23.91;65.88;100692.34;5043871;28;1601;-41
2021/07/14 01:25:38;;;;;;;;;;;;;;;23.90;66.31;100677.19;5047428;28;1276;-42
2021/07/14 01:28:07;;;;;;;;;;;;;;;23.92;65.99;100696.75;5044369;28;1727;-41
2021/07/14 01:30:33;;;;;;;;;;;;;;;23.90;65.93;100690.69;5045860;28;1564;-42
2021/07/14 01:33:03;;;;;;;;;;;;;;;23.69;66.26;100697.38;5043551;28;1465;-42
2021/07/14 01:35:31;;;;;;;;;;;;;;;23.37;66.84;100682.84;5046521;28;1538;-42
2021/07/14 01:37:58;;;;;;;;;;;;;;;23.24;67.22;100693.31;5045449;28;1906;-41
2021/07/14 01:40:25;;;;;;;;;;;;;;;23.08;67.76;100702.19;5048507;28;1418;-42
2021/07/14 01:42:53;;;;;;;;;;;;;;;23.19;66.95;100695.63;5045204;28;1581;-42
2021/07/14 01:45:21;;;;;;;;;;;;;;;23.26;66.93;100703.91;5043316;28;1574;-41
2021/07/14 01:47:48;;;;;;;;;;;;;;;23.15;66.91;100700.50;5047718;28;1689;-41
2021/07/14 01:50:16;;;;;;;;;;;;;;;23.28;66.87;100694.66;5044218;28;1654;-42
2021/07/14 01:52:43;;;;;;;;;;;;;;;23.25;67.04;100688.75;5038599;28;1385;-42
2021/07/14 01:55:11;;;;;;;;;;;;;;;23.23;66.71;100687.03;5045337;28;1804;-41
2021/07/14 01:57:38;;;;;;;;;;;;;;;23.23;66.39;100688.91;5047556;28;1905;-42
2021/07/14 02:03:01;;;;;;;;;;;;;;;23.53;66.01;100697.38;5103211;22;2123;-41
2021/07/14 02:05:28;;;;;;;;;;;;;;;23.58;65.43;100687.78;5064148;28;1542;-41
2021/07/14 02:07:54;;;;;;;;;;;;;;;23.68;65.82;100701.13;5069457;28;1541;-42
2021/07/14 02:10:21;;;;;;;;;;;;;;;23.65;65.89;100689.81;5068749;28;1536;-41
2021/07/14 02:12:49;;;;;;;;;;;;;;;23.68;65.67;100706.50;5065399;28;1471;-42
2021/07/14 02:15:16;;;;;;;;;;;;;;;23.62;65.66;100702.63;5066219;28;1486;-41
2021/07/14 02:17:45;;;;;;;;;;;;;;;23.60;65.74;100706.50;5067796;28;1913;-42
2021/07/14 02:20:15;;;;;;;;;;;;;;;23.61;65.06;100706.31;5068785;28;1594;-42
2021/07/14 02:22:42;;;;;;;;;;;;;;;23.52;65.35;100695.72;5065710;28;1175;-42
2021/07/14 02:25:09;;;;;;;;;;;;;;;23.46;65.59;100701.75;5067796;28;2146;-42
2021/07/14 02:27:36;;;;;;;;;;;;;;;23.52;65.53;100714.59;5068782;28;2336;-42
2021/07/14 02:30:03;;;;;;;;;;;;;;;23.58;65.57;100700.44;5065654;28;1593;-42
2021/07/14 02:32:29;;;;;;;;;;;;;;;23.61;65.28;100703.63;5067151;28;1754;-42
2021/07/14 02:34:57;;;;;;;;;;;;;;;23.71;65.59;100721.53;5065716;28;2843;-41
2021/07/14 02:37:30;;;;;;;;;;;;;;;23.71;66.01;100716.97;5066480;28;3524;-42
2021/07/14 02:39:59;;;;;;;;;;;;;;;23.75;65.63;100710.22;5062711;28;3440;-42
2021/07/14 02:42:29;;;;;;;;;;;;;;;23.68;65.41;100728.13;5062691;28;3641;-41
2021/07/14 02:44:57;;;;;;;;;;;;;;;23.61;64.80;100724.38;5060846;28;1175;-41
2021/07/14 02:47:24;;;;;;;;;;;;;;;23.59;65.39;100721.00;5070710;28;1175;-41
2021/07/14 02:49:51;;;;;;;;;;;;;;;23.61;64.82;100724.38;5055071;28;1299;-41
2021/07/14 02:52:22;;;;;;;;;;;;;;;23.60;65.19;100734.34;5071711;28;1159;-42
2021/07/14 02:54:50;;;;;;;;;;;;;;;23.64;64.79;100742.97;5072305;28;1348;-41
2021/07/14 02:57:17;;;;;;;;;;;;;;;23.62;64.88;100729.63;5073385;28;1518;-41
2021/07/14 02:59:46;;;;;;;;;;;;;;;23.54;65.26;100726.06;5073475;28;1902;-41
2021/07/14 03:02:15;;;;;;;;;;;;;;;23.37;65.47;100726.03;5073283;28;1562;-41
2021/07/14 03:04:45;;;;;;;;;;;;;;;23.33;65.56;100723.84;5073396;28;1281;-41
2021/07/14 03:07:12;;;;;;;;;;;;;;;23.22;65.78;100736.63;5073342;28;1226;-41
2021/07/14 03:09:41;;;;;;;;;;;;;;;23.24;65.53;100736.47;5073454;28;1222;-41
2021/07/14 03:12:10;;;;;;;;;;;;;;;23.19;65.63;100734.25;5073456;28;1210;-41
2021/07/14 03:14:38;;;;;;;;;;;;;;;23.13;65.85;100751.09;5073365;28;1242;-41
2021/07/14 03:17:05;;;;;;;;;;;;;;;23.07;66.45;100756.31;5073412;28;1234;-41
2021/07/14 03:19:32;;;;;;;;;;;;;;;22.94;66.12;100741.38;5072911;28;1975;-41
2021/07/14 03:21:59;;;;;;;;;;;;;;;23.18;65.59;100758.72;5073206;28;1309;-42
2021/07/14 03:24:26;;;;;;;;;;;;;;;23.31;65.63;100744.75;5073666;28;1941;-41
2021/07/14 03:26:53;;;;;;;;;;;;;;;23.29;65.55;100754.84;5073107;28;1908;-41
2021/07/14 03:29:21;;;;;;;;;;;;;;;23.40;65.50;100736.50;5072889;28;1633;-41
2021/07/14 03:31:47;;;;;;;;;;;;;;;23.39;65.40;100751.00;5065087;28;1575;-41
2021/07/14 03:34:14;;;;;;;;;;;;;;;23.44;65.64;100753.22;5071879;28;1535;-41
2021/07/14 03:36:43;;;;;;;;;;;;;;;23.54;65.48;100759.31;5071697;28;1439;-41
2021/07/14 03:39:09;;;;;;;;;;;;;;;23.57;65.57;100753.56;5071309;28;1910;-41
2021/07/14 03:41:36;;;;;;;;;;;;;;;23.55;65.05;100747.47;5063188;28;1775;-42
2021/07/14 03:44:03;;;;;;;;;;;;;;;23.62;65.38;100756.63;5074203;28;1770;-41
2021/07/14 03:46:31;;;;;;;;;;;;;;;23.72;65.34;100766.44;5076736;28;1922;-41
2021/07/14 03:48:57;;;;;;;;;;;;;;;23.63;65.24;100763.72;5076349;28;1888;-41
2021/07/14 03:51:24;;;;;;;;;;;;;;;23.70;65.75;100757.66;5076310;28;1603;-41
2021/07/14 03:53:52;;;;;;;;;;;;;;;23.64;65.51;100772.66;5075396;28;1651;-41
2021/07/14 03:56:22;;;;;;;;;;;;;;;23.67;65.24;100761.50;5076225;28;1540;-42
2021/07/14 03:58:49;;;;;;;;;;;;;;;23.72;64.87;100755.63;5070419;28;1906;-41
2021/07/14 04:01:18;;;;;;;;;;;;;;;23.75;65.38;100758.81;5075957;28;1826;-42
2021/07/14 04:03:47;;;;;;;;;;;;;;;23.63;65.82;100765.56;5075934;28;1573;-41
2021/07/14 04:06:15;;;;;;;;;;;;;;;23.36;66.71;100767.53;5075864;28;1558;-41
2021/07/14 04:08:44;;;;;;;;;;;;;;;23.25;66.77;100759.72;5074238;28;1751;-41
2021/07/14 04:11:11;;;;;;;;;;;;;;;23.36;66.70;100758.59;5076002;28;1734;-41
2021/07/14 04:13:37;;;;;;;;;;;;;;;23.38;66.62;100773.59;5073152;28;1707;-41
2021/07/14 04:16:04;;;;;;;;;;;;;;;23.56;65.91;100757.28;5076055;28;1362;-41
2021/07/14 04:18:31;;;;;;;;;;;;;;;23.54;66.41;100774.66;5075801;28;1971;-41
2021/07/14 04:20:59;;;;;;;;;;;;;;;23.52;66.31;100768.59;5075943;28;1234;-41
2021/07/14 04:23:25;;;;;;;;;;;;;;;23.64;65.93;100780.75;5076198;28;1350;-41
2021/07/14 04:25:52;;;;;;;;;;;;;;;23.47;66.74;100773.63;5075959;28;1747;-42
2021/07/14 04:28:19;;;;;;;;;;;;;;;23.39;67.30;100780.69;5076044;28;1226;-41
2021/07/14 04:30:45;;;;;;;;;;;;;;;23.35;67.34;100782.00;5074411;28;1265;-41
2021/07/14 04:33:12;;;;;;;;;;;;;;;23.32;67.33;100779.66;5075685;28;1191;-41
2021/07/14 04:35:39;;;;;;;;;;;;;;;23.32;67.45;100779.66;5076010;28;1274;-41
2021/07/14 04:38:07;;;;;;;;;;;;;;;23.55;66.90;100777.19;5075485;28;1910;-41
2021/07/14 04:40:34;;;;;;;;;;;;;;;23.69;66.94;100781.09;5075465;28;1231;-42
2021/07/14 04:43:00;;;;;;;;;;;;;;;23.75;66.50;100783.13;5075075;28;1430;-41
2021/07/14 04:45:27;;;;;;;;;;;;;;;23.71;66.63;100797.13;5075533;28;1549;-41
2021/07/14 04:47:53;;;;;;;;;;;;;;;23.84;66.43;100784.03;5075314;28;1194;-41
2021/07/14 04:50:20;;;;;;;;;;;;;;;24.02;65.73;100794.66;5073239;28;1809;-41
2021/07/14 04:52:46;;;;;;;;;;;;;;;23.92;66.31;100804.78;5058434;28;1246;-42
2021/07/14 04:55:14;;;;;;;;;;;;;;;23.79;66.62;100795.31;5074975;28;1211;-41
2021/07/14 04:57:40;;;;;;;;;;;;;;;23.78;66.67;100809.00;5075197;28;1290;-41
2021/07/14 05:00:07;;;;;;;;;;;;;;;23.65;67.19;100809.44;5075257;28;1973;-42
2021/07/14 05:02:34;;;;;;;;;;;;;;;23.61;67.19;100802.66;5073719;28;1685;-42
2021/07/14 05:05:01;;;;;;;;;;;;;;;23.62;67.44;100809.78;5064839;28;1805;-41
2021/07/14 05:07:29;;;;;;;;;;;;;;;23.61;67.75;100810.75;5066300;28;1475;-41
2021/07/14 05:09:56;;;;;;;;;;;;;;;23.87;67.30;100813.38;5067760;28;1224;-41
2021/07/14 05:12:24;;;;;;;;;;;;;;;24.09;66.65;100819.97;5074946;28;1289;-41
2021/07/14 05:14:50;;;;;;;;;;;;;;;24.19;66.36;100818.00;5058889;28;1215;-42
2021/07/14 05:17:16;;;;;;;;;;;;;;;24.25;66.41;100804.78;5070867;28;1840;-42
2021/07/14 05:19:43;;;;;;;;;;;;;;;24.18;66.15;100816.28;5064037;28;1910;-41
2021/07/14 05:22:10;;;;;;;;;;;;;;;23.64;64.79;100813.16;5071224;28;2118;-41
2021/07/14 05:24:37;;;;;;;;;;;;;;;23.04;65.30;100814.13;5074415;28;1591;-41
2021/07/14 05:27:03;;;;;;;;;;;;;;;22.86;65.51;100813.28;5074865;28;1645;-41
2021/07/14 05:29:31;;;;;;;;;;;;;;;22.68;65.64;100807.97;5073997;28;1892;-41
2021/07/14 05:31:58;;;;;;;;;;;;;;;22.94;68.42;100821.41;5074349;28;1906;-42
2021/07/14 05:34:24;;;;;;;;;;;;;;;23.22;69.20;100835.63;5074442;28;1572;-42
2021/07/14 05:36:51;;;;;;;;;;;;;;;23.48;69.68;100835.53;5074453;28;1929;-41
2021/07/14 05:39:17;;;;;;;;;;;;;;;23.55;70.17;100819.53;5074151;28;1898;-41
2021/07/14 05:41:43;;;;;;;;;;;;;;;23.69;70.81;100826.16;5073840;28;1932;-41
2021/07/14 05:44:10;;;;;;;;;;;;;;;23.85;70.59;100828.06;5073498;28;1709;-41
2021/07/14 05:46:38;;;;;;;;;;;;;;;23.88;71.34;100820.47;5073446;28;1522;-40
2021/07/14 05:49:04;;;;;;;;;;;;;;;23.96;71.17;100816.94;5073685;28;1777;-41
2021/07/14 05:51:31;;;;;;;;;;;;;;;24.09;71.41;100828.09;5074350;28;1881;-41
2021/07/14 05:53:58;;;;;;;;;;;;;;;24.27;70.84;100818.97;5074091;28;1883;-41
2021/07/14 05:56:24;;;;;;;;;;;;;;;24.28;71.00;100821.53;5073393;28;1871;-41
2021/07/14 05:58:50;;;;;;;;;;;;;;;24.25;71.19;100821.00;5073180;28;1913;-41
2021/07/14 06:01:17;;;;;;;;;;;;;;;24.24;70.54;100813.94;5073283;28;1596;-41
2021/07/14 06:03:46;;;;;;;;;;;;;;;23.95;68.30;100821.47;5073097;28;1538;-41
2021/07/14 06:06:13;;;;;;;;;;;;;;;23.64;68.53;100823.94;5073050;28;1813;-41
2021/07/14 06:08:40;;;;;;;;;;;;;;;23.57;68.91;100833.69;5073458;28;1698;-41
2021/07/14 06:11:06;;;;;;;;;;;;;;;23.57;69.31;100839.94;5073316;28;1806;-41
2021/07/14 06:13:33;;;;;;;;;;;;;;;23.55;69.35;100825.75;5070847;28;1587;-41
2021/07/14 06:15:59;;;;;;;;;;;;;;;23.54;69.62;100840.28;5069775;28;1614;-41
2021/07/14 06:18:26;;;;;;;;;;;;;;;23.52;70.06;100836.06;5066171;28;1903;-41
2021/07/14 06:20:53;;;;;;;;;;;;;;;23.56;69.60;100842.81;5073362;28;1523;-41
2021/07/14 06:23:20;;;;;;;;;;;;;;;23.56;70.15;100853.63;5073872;28;1887;-41
2021/07/14 06:25:47;;;;;;;;;;;;;;;23.52;70.22;100850.41;5073416;28;1677;-41
2021/07/14 06:28:13;;;;;;;;;;;;;;;23.62;69.96;100858.38;5073750;28;1583;-41
2021/07/14 06:30:40;;;;;;;;;;;;;;;23.60;70.22;100860.38;5071777;28;1954;-42
2021/07/14 06:33:07;;;;;;;;;;;;;;;23.61;70.26;100856.66;5068524;28;1833;-41
2021/07/14 06:35:33;;;;;;;;;;;;;;;23.65;70.39;100851.78;5066187;28;1476;-41
2021/07/14 06:38:01;;;;;;;;;;;;;;;23.63;70.26;100851.94;5072320;28;1841;-41
2021/07/14 06:40:28;;;;;;;;;;;;;;;23.62;69.27;100834.06;5071612;28;1902;-41
2021/07/14 06:42:54;;;;;;;;;;;;;;;23.60;67.82;100854.97;5072674;28;1683;-41
2021/07/14 06:45:23;;;;;;;;;;;;;;;23.53;67.78;100840.44;5072020;28;1593;-41
2021/07/14 06:47:50;;;;;;;;;;;;;;;23.50;69.14;100843.47;5067273;28;1659;-41
2021/07/14 06:50:17;;;;;;;;;;;;;;;23.54;68.83;100851.09;5073559;28;1970;-41
2021/07/14 06:52:44;;;;;;;;;;;;;;;23.53;69.16;100843.97;5073550;28;1546;-41
2021/07/14 06:55:12;;;;;;;;;;;;;;;23.60;69.39;100852.28;5073378;28;1587;-41
2021/07/14 06:57:40;;;;;;;;;;;;;;;23.63;69.43;100847.41;5072092;28;1675;-42
2021/07/14 07:00:08;;;;;;;;;;;;;;;23.73;69.18;100836.44;5073063;28;1911;-41
2021/07/14 07:02:35;;;;;;;;;;;;;;;23.66;69.45;100838.13;5056544;28;1487;-41
2021/07/14 07:05:01;;;;;;;;;;;;;;;23.63;69.62;100838.44;5067780;28;1266;-41
2021/07/14 07:07:27;;;;;;;;;;;;;;;23.68;70.34;100835.28;5062761;28;1194;-41
2021/07/14 07:09:54;;;;;;;;;;;;;;;23.52;69.12;100838.75;5073446;28;1187;-40
2021/07/14 07:12:22;;;;;;;;;;;;;;;23.23;68.68;100854.31;5073213;28;1392;-42
2021/07/14 07:14:49;;;;;;;;;;;;;;;22.94;68.44;100846.56;5071041;28;1660;-41
2021/07/14 07:17:15;;;;;;;;;;;;;;;22.94;68.21;100843.88;5063126;28;1628;-41
2021/07/14 07:19:41;;;;;;;;;;;;;;;22.98;67.06;100839.84;5069921;28;1906;-41
2021/07/14 07:22:08;;;;;;;;;;;;;;;23.08;67.64;100847.84;5065889;28;1615;-41
2021/07/14 07:24:34;;;;;;;;;;;;;;;23.20;68.30;100843.03;5076930;28;1215;-41
2021/07/14 07:27:03;;;;;;;;;;;;;;;23.31;68.50;100848.09;5076863;28;1429;-41
2021/07/14 07:29:31;;;;;;;;;;;;;;;23.34;68.63;100838.88;5077141;28;1270;-41
2021/07/14 07:31:58;;;;;;;;;;;;;;;23.39;69.44;100840.03;5077184;28;1202;-41
2021/07/14 07:34:24;;;;;;;;;;;;;;;23.41;69.26;100848.81;5076668;28;1278;-41
2021/07/14 07:36:51;;;;;;;;;;;;;;;23.50;69.48;100851.59;5076944;28;2075;-41
2021/07/14 07:39:17;;;;;;;;;;;;;;;23.50;69.53;100836.22;5076925;28;1967;-41
2021/07/14 07:41:44;;;;;;;;;;;;;;;23.60;69.56;100845.03;5076468;28;1583;-41
2021/07/14 07:44:10;;;;;;;;;;;;;;;23.66;69.87;100837.28;5076770;28;1315;-41
2021/07/14 07:46:39;;;;;;;;;;;;;;;23.58;70.06;100832.72;5076166;28;1262;-41
2021/07/14 07:49:06;;;;;;;;;;;;;;;23.67;70.51;100855.16;5075040;28;1600;-41
2021/07/14 07:51:33;;;;;;;;;;;;;;;23.70;70.27;100846.75;5075235;28;1876;-41
2021/07/14 07:53:59;;;;;;;;;;;;;;;23.66;69.71;100848.94;5072302;28;1375;-42
2021/07/14 07:56:26;;;;;;;;;;;;;;;23.53;68.51;100843.13;5071479;28;1641;-41
2021/07/14 07:58:53;;;;;;;;;;;;;;;23.46;68.53;100851.06;5070375;28;1336;-41
2021/07/14 08:01:19;;;;;;;;;;;;;;;23.49;69.61;100839.91;5074039;28;1967;-42
2021/07/14 08:03:47;;;;;;;;;;;;;;;23.42;70.28;100842.44;5073744;28;1643;-41
2021/07/14 08:06:14;;;;;;;;;;;;;;;23.44;70.22;100847.69;5070705;28;1598;-42
2021/07/14 08:08:40;;;;;;;;;;;;;;;23.51;70.28;100840.59;5072348;28;1555;-41
2021/07/14 08:11:08;;;;;;;;;;;;;;;23.52;71.07;100842.31;5074334;28;1500;-40
2021/07/14 08:13:34;;;;;;;;;;;;;;;23.55;71.29;100841.97;5076141;28;1624;-41
2021/07/14 08:16:01;;;;;;;;;;;;;;;23.57;71.95;100844.50;5069188;28;1815;-41
2021/07/14 08:18:27;;;;;;;;;;;;;;;23.59;72.09;100840.63;5073882;28;1650;-41
2021/07/14 08:20:56;;;;;;;;;;;;;;;23.70;72.22;100839.50;5074882;28;1905;-41
2021/07/14 08:23:22;;;;;;;;;;;;;;;23.70;71.68;100822.44;5070153;28;1633;-41
2021/07/14 08:25:51;;;;;;;;;;;;;;;23.81;71.84;100839.22;5075280;28;1545;-42
2021/07/14 08:28:17;;;;;;;;;;;;;;;23.89;71.61;100848.31;5070213;28;1888;-41
2021/07/14 08:30:44;;;;;;;;;;;;;;;23.86;71.86;100843.28;5067934;28;1593;-41
2021/07/14 08:33:10;;;;;;;;;;;;;;;23.75;69.52;100831.72;5073890;28;1585;-41
2021/07/14 08:35:40;;;;;;;;;;;;;;;23.55;69.65;100830.31;5074941;28;1520;-42
2021/07/14 08:38:08;;;;;;;;;;;;;;;23.55;70.12;100830.31;5067782;28;1596;-41
2021/07/14 08:40:34;;;;;;;;;;;;;;;23.65;70.67;100843.69;5074749;28;1914;-40
2021/07/14 08:43:02;;;;;;;;;;;;;;;23.67;70.81;100833.56;5075051;28;1877;-41
2021/07/14 08:45:28;;;;;;;;;;;;;;;23.73;70.74;100838.31;5071567;28;1655;-41
2021/07/14 08:47:55;;;;;;;;;;;;;;;23.75;71.01;100830.88;5072735;28;1621;-42
2021/07/14 08:50:22;;;;;;;;;;;;;;;23.81;70.82;100831.13;5072559;28;1523;-41
2021/07/14 08:52:49;;;;;;;;;;;;;;;23.85;70.79;100831.59;5066015;28;1717;-41
2021/07/14 08:55:17;;;;;;;;;;;;;;;23.75;71.80;100820.91;5067343;28;1522;-41
2021/07/14 08:57:44;;;;;;;;;;;;;;;23.89;71.37;100815.91;5072914;28;1565;-41
2021/07/14 09:00:12;;;;;;;;;;;;;;;23.87;71.65;100818.78;5073520;28;1910;-41
2021/07/14 09:02:39;;;;;;;;;;;;;;;23.91;71.20;100822.00;5074563;28;1828;-41
2021/07/14 09:05:07;;;;;;;;;;;;;;;23.96;71.38;100822.34;5073312;28;1934;-41
2021/07/14 09:07:34;;;;;;;;;;;;;;;23.98;71.50;100818.47;5074947;28;1887;-41
2021/07/14 09:10:01;;;;;;;;;;;;;;;23.84;70.21;100823.69;5072576;28;1871;-41
2021/07/14 09:12:36;;;;;;;;;;;;;;;23.68;68.37;100814.50;5070623;28;1403;-41
2021/07/14 09:15:05;;;;;;;;;;;;;;;23.25;67.38;100829.03;5068616;28;1894;-40
2021/07/14 09:17:32;;;;;;;;;;;;;;;22.87;66.96;100831.19;5073768;28;1499;-41
2021/07/14 09:20:01;;;;;;;;;;;;;;;22.63;66.74;100814.66;5068556;28;1909;-41
2021/07/14 09:22:32;;;;;;;;;;;;;;;22.53;66.12;100827.41;5070493;28;1653;-41
2021/07/14 09:24:58;;;;;;;;;;;;;;;22.31;65.80;100814.44;5073118;28;1457;-41
2021/07/14 09:27:28;;;;;;;;;;;;;;;22.22;65.71;100811.66;5071438;28;1639;-41
2021/07/14 09:30:10;;;;;;;;;;;;;;;22.22;64.88;100825.13;5069543;28;1383;-41
2021/07/14 09:32:47;;;;;;;;;;;;;;;22.18;64.53;100825.56;5070166;28;1332;-41
2021/07/14 09:35:23;;;;;;;;;;;;;;;22.11;63.94;100814.59;5073238;28;1320;-41
2021/07/14 09:37:49;;;;;;;;;;;;;;;21.99;63.75;100815.81;5073144;28;1292;-41
2021/07/14 09:40:16;;;;;;;;;;;;;;;22.04;63.47;100832.34;5072565;28;1902;-41
2021/07/14 09:42:50;;;;;;;;;;;;;;;21.95;63.05;100830.59;5071966;28;1653;-41
2021/07/14 09:45:27;;;;;;;;;;;;;;;21.87;62.60;100823.28;5073002;28;1276;-41
2021/07/14 09:47:57;;;;;;;;;;;;;;;21.84;62.75;100827.13;5072169;28;1580;-41
2021/07/14 09:50:30;;;;;;;;;;;;;;;21.76;62.47;100821.66;5073221;28;1293;-41
2021/07/14 09:53:01;;;;;;;;;;;;;;;21.80;62.76;100843.72;5068644;28;1333;-41
2021/07/14 09:55:28;;;;;;;;;;;;;;;21.74;61.70;100810.19;5072604;28;1336;-41
2021/07/14 09:58:06;;;;;;;;;;;;;;;21.65;61.83;100825.41;5073023;28;1284;-41
2021/07/14 10:00:39;;;;;;;;;;;;;;;21.77;61.45;100834.13;5072904;28;1972;-40
2021/07/14 10:03:06;;;;;;;;;;;;;;;21.83;61.48;100828.13;5070771;28;1518;-41
2021/07/14 10:05:32;;;;;;;;;;;;;;;21.92;61.58;100837.13;5071975;28;1515;-41
2021/07/14 10:08:13;;;;;;;;;;;;;;;22.02;62.35;100821.75;5070338;28;1953;-41
2021/07/14 10:10:40;;;;;;;;;;;;;;;22.16;62.32;100817.66;5072874;28;1596;-41
2021/07/14 10:13:08;;;;;;;;;;;;;;;22.30;62.46;100818.13;5067879;28;1587;-41
2021/07/14 10:15:35;;;;;;;;;;;;;;;22.67;61.97;100806.28;5061554;28;1496;-41
2021/07/14 10:18:03;;;;;;;;;;;;;;;23.12;61.20;100824.94;5059988;28;1620;-40
2021/07/14 10:20:31;;;;;;;;;;;;;;;23.40;60.77;100819.31;5072045;28;1973;-41
2021/07/14 10:22:59;;;;;;;;;;;;;;;23.63;60.44;100808.75;5073634;28;1678;-41
2021/07/14 10:25:26;;;;;;;;;;;;;;;23.77;60.89;100813.53;5073219;28;1875;-41
2021/07/14 10:27:54;;;;;;;;;;;;;;;23.94;60.21;100802.78;5067787;28;1617;-41
2021/07/14 10:30:21;;;;;;;;;;;;;;;24.05;60.73;100794.31;5067473;28;1848;-41
2021/07/14 10:32:48;;;;;;;;;;;;;;;24.16;60.46;100828.28;5065698;28;1851;-41
2021/07/14 10:35:17;;;;;;;;;;;;;;;24.19;60.55;100799.06;5070885;28;1699;-40
2021/07/14 10:37:49;;;;;;;;;;;;;;;24.25;60.51;100794.81;5072815;28;1609;-41
2021/07/14 10:40:17;;;;;;;;;;;;;;;24.28;61.20;100791.78;5070840;28;1906;-41
2021/07/14 10:42:45;;;;;;;;;;;;;;;24.29;63.30;100784.53;5069423;28;1900;-41
2021/07/14 10:45:12;;;;;;;;;;;;;;;23.80;62.16;100807.81;5072967;28;1659;-40
2021/07/14 10:47:39;;;;;;;;;;;;;;;23.05;62.38;100812.25;5064711;28;1657;-40
2021/07/14 10:50:06;;;;;;;;;;;;;;;22.55;62.84;100800.31;5073401;28;1846;-41
2021/07/14 10:52:34;;;;;;;;;;;;;;;22.29;62.77;100797.59;5072130;28;1953;-41
2021/07/14 10:55:02;;;;;;;;;;;;;;;22.16;62.73;100806.91;5073303;28;1971;-40
2021/07/14 10:57:29;;;;;;;;;;;;;;;22.01;62.34;100790.44;5072836;28;1913;-40
2021/07/14 10:59:55;;;;;;;;;;;;;;;21.91;61.95;100786.97;5071583;28;1905;-40
2021/07/14 11:02:37;;;;;;;;;;;;;;;21.93;62.62;100800.28;5063983;28;1679;-40
2021/07/14 11:05:04;;;;;;;;;;;;;;;21.76;62.57;100783.13;5070699;28;1892;-40
2021/07/14 11:07:38;;;;;;;;;;;;;;;21.80;61.93;100792.59;5064294;28;1730;-40
2021/07/14 11:10:23;;;;;;;;;;;;;;;21.73;61.57;100805.81;5064075;28;1624;-40
2021/07/14 11:12:50;;;;;;;;;;;;;;;21.79;61.44;100791.75;5071875;28;1510;-41
2021/07/14 11:15:27;;;;;;;;;;;;;;;21.83;62.28;100789.59;5073360;28;1973;-40
2021/07/14 11:17:53;;;;;;;;;;;;;;;22.02;62.76;100786.75;5072390;28;1561;-41
2021/07/14 11:20:20;;;;;;;;;;;;;;;22.13;63.08;100784.81;5072898;28;1898;-40
2021/07/14 11:22:49;;;;;;;;;;;;;;;22.16;63.45;100777.28;5072182;28;1475;-41
2021/07/14 11:25:23;;;;;;;;;;;;;;;22.21;62.95;100783.00;5073073;28;1923;-40
2021/07/14 11:27:50;;;;;;;;;;;;;;;22.14;63.07;100771.16;5072891;28;2069;-40
2021/07/14 11:30:25;;;;;;;;;;;;;;;22.09;64.04;100773.50;5071658;28;1610;-40
2021/07/14 11:32:56;;;;;;;;;;;;;;;22.02;63.73;100783.19;5072580;28;1509;-41
2021/07/14 11:35:23;;;;;;;;;;;;;;;22.00;64.42;100771.72;5071221;28;1515;-40
2021/07/14 11:38:00;;;;;;;;;;;;;;;22.00;63.98;100769.03;5072405;28;1858;-41
2021/07/14 11:40:36;;;;;;;;;;;;;;;22.16;64.18;100771.00;5072317;28;1990;-40
2021/07/14 11:43:04;;;;;;;;;;;;;;;22.20;64.37;100769.69;5072304;28;1636;-40
2021/07/14 11:45:36;;;;;;;;;;;;;;;22.26;63.97;100752.09;5071140;28;1636;-40
2021/07/14 11:48:04;;;;;;;;;;;;;;;22.29;64.27;100759.88;5072600;28;1954;-41
2021/07/14 11:50:46;;;;;;;;;;;;;;;22.21;64.53;100755.25;5070485;28;1593;-41
2021/07/14 11:53:27;;;;;;;;;;;;;;;22.26;64.46;100768.25;5071807;28;1308;-41
2021/07/14 11:56:02;;;;;;;;;;;;;;;22.23;64.51;100758.63;5071430;28;1425;-40
2021/07/14 11:58:47;;;;;;;;;;;;;;;22.28;64.88;100758.19;5069786;28;1447;-40
2021/07/14 12:01:29;;;;;;;;;;;;;;;22.32;64.93;100751.47;5068749;28;1906;-40
2021/07/14 12:04:07;;;;;;;;;;;;;;;22.31;65.02;100756.03;5056562;28;1361;-40
2021/07/14 12:06:37;;;;;;;;;;;;;;;22.26;64.89;100763.72;5071948;28;1207;-40
2021/07/14 12:09:04;;;;;;;;;;;;;;;22.22;65.03;100736.25;5069230;28;1651;-40
2021/07/14 12:11:32;;;;;;;;;;;;;;;22.17;64.67;100753.88;5070980;28;1393;-40
2021/07/14 12:13:58;;;;;;;;;;;;;;;22.14;64.94;100748.78;5076361;28;1265;-40
2021/07/14 12:16:25;;;;;;;;;;;;;;;22.07;64.74;100753.97;5076286;28;1274;-40
2021/07/14 12:18:55;;;;;;;;;;;;;;;21.98;65.08;100752.19;5076172;28;1219;-40
2021/07/14 12:21:32;;;;;;;;;;;;;;;22.02;65.27;100761.66;5076192;28;1905;-41
2021/07/14 12:23:59;;;;;;;;;;;;;;;21.97;64.88;100755.91;5075610;28;1862;-40
2021/07/14 12:26:25;;;;;;;;;;;;;;;22.07;64.68;100753.97;5061451;28;1455;-40
2021/07/14 12:28:53;;;;;;;;;;;;;;;22.00;64.33;100742.09;5073953;28;1613;-40
2021/07/14 12:31:20;;;;;;;;;;;;;;;22.02;64.98;100748.19;5075883;28;1647;-40
2021/07/14 12:33:51;;;;;;;;;;;;;;;22.03;64.34;100748.03;5074371;28;1870;-41
2021/07/14 12:36:17;;;;;;;;;;;;;;;22.23;64.30;100740.59;5075234;28;1807;-40
2021/07/14 12:38:51;;;;;;;;;;;;;;;22.39;64.08;100750.69;5073797;28;1870;-41
2021/07/14 12:41:18;;;;;;;;;;;;;;;22.51;64.12;100745.88;5072151;28;2048;-41
2021/07/14 12:43:44;;;;;;;;;;;;;;;22.53;64.07;100743.88;5072708;28;1423;-40
2021/07/14 12:46:23;;;;;;;;;;;;;;;22.55;64.41;100733.78;5073767;28;1370;-41
2021/07/14 12:48:50;;;;;;;;;;;;;;;22.58;63.89;100752.34;5073215;28;1661;-41
2021/07/14 12:51:18;;;;;;;;;;;;;;;22.58;64.36;100730.78;5074384;28;1351;-41
2021/07/14 12:53:55;;;;;;;;;;;;;;;22.64;64.12;100740.91;5074156;28;1338;-41
2021/07/14 12:56:25;;;;;;;;;;;;;;;22.70;63.85;100739.44;5072918;28;1318;-41
2021/07/14 12:58:58;;;;;;;;;;;;;;;22.62;64.19;100729.44;5073091;28;1362;-41
2021/07/14 13:01:27;;;;;;;;;;;;;;;22.67;64.40;100726.25;5073809;28;1929;-41
2021/07/14 13:03:54;;;;;;;;;;;;;;;22.81;63.77;100722.13;5074247;28;1738;-41